sensor_id;sensor_type;location;lat;lon;timestamp;P1;durP1;ratioP1;P2;durP2;ratioP2
35612;SDS011;22054;51.646;7.078;2022-09-09T00:04:34;3.72;;;2.28;;
35612;SDS011;22054;51.646;7.078;2022-09-09T00:21:31;4.50;;;2.35;;
35612;SDS011;22054;51.646;7.078;2022-09-09T00:24:38;2.95;;;1.50;;
35612;SDS011;22054;51.646;7.078;2022-09-09T00:27:07;3.88;;;1.45;;
35612;SDS011;22054;51.646;7.078;2022-09-09T00:30:11;2.03;;;1.90;;
35612;SDS011;22054;51.646;7.078;2022-09-09T00:32:54;3.92;;;2.83;;
35612;SDS011;22054;51.646;7.078;2022-09-09T00:35:38;3.00;;;2.80;;
35612;SDS011;22054;51.646;7.078;2022-09-09T00:38:35;6.03;;;2.65;;
35612;SDS011;22054;51.646;7.078;2022-09-09T00:44:03;3.88;;;2.05;;
35612;SDS011;22054;51.646;7.078;2022-09-09T00:58:34;5.43;;;3.05;;
35612;SDS011;22054;51.646;7.078;2022-09-09T01:03:34;5.28;;;2.45;;
35612;SDS011;22054;51.646;7.078;2022-09-09T01:14:34;4.15;;;2.10;;
35612;SDS011;22054;51.646;7.078;2022-09-09T01:27:54;2.55;;;1.70;;
35612;SDS011;22054;51.646;7.078;2022-09-09T01:30:30;2.13;;;1.77;;
35612;SDS011;22054;51.646;7.078;2022-09-09T01:32:58;5.05;;;2.20;;
35612;SDS011;22054;51.646;7.078;2022-09-09T01:38:02;3.08;;;1.95;;
35612;SDS011;22054;51.646;7.078;2022-09-09T01:40:27;6.00;;;2.47;;
35612;SDS011;22054;51.646;7.078;2022-09-09T01:42:53;2.58;;;1.95;;
35612;SDS011;22054;51.646;7.078;2022-09-09T01:45:20;3.88;;;2.20;;
35612;SDS011;22054;51.646;7.078;2022-09-09T01:47:47;2.63;;;2.10;;
35612;SDS011;22054;51.646;7.078;2022-09-09T01:50:14;4.80;;;2.55;;
35612;SDS011;22054;51.646;7.078;2022-09-09T01:52:42;3.90;;;2.30;;
35612;SDS011;22054;51.646;7.078;2022-09-09T01:55:10;8.10;;;2.65;;
35612;SDS011;22054;51.646;7.078;2022-09-09T01:57:46;4.25;;;2.45;;
35612;SDS011;22054;51.646;7.078;2022-09-09T02:00:37;4.10;;;2.35;;
35612;SDS011;22054;51.646;7.078;2022-09-09T02:08:57;2.47;;;2.00;;
35612;SDS011;22054;51.646;7.078;2022-09-09T02:11:27;4.70;;;2.50;;
35612;SDS011;22054;51.646;7.078;2022-09-09T02:14:00;5.85;;;3.63;;
35612;SDS011;22054;51.646;7.078;2022-09-09T02:16:42;6.40;;;5.07;;
35612;SDS011;22054;51.646;7.078;2022-09-09T02:21:52;8.50;;;5.63;;
35612;SDS011;22054;51.646;7.078;2022-09-09T02:24:21;7.68;;;4.80;;
35612;SDS011;22054;51.646;7.078;2022-09-09T02:26:48;7.05;;;5.00;;
35612;SDS011;22054;51.646;7.078;2022-09-09T02:29:19;8.40;;;4.88;;
35612;SDS011;22054;51.646;7.078;2022-09-09T02:31:59;6.78;;;5.20;;
35612;SDS011;22054;51.646;7.078;2022-09-09T02:34:31;5.47;;;4.97;;
35612;SDS011;22054;51.646;7.078;2022-09-09T02:37:03;6.85;;;3.80;;
35612;SDS011;22054;51.646;7.078;2022-09-09T02:39:31;6.32;;;4.00;;
35612;SDS011;22054;51.646;7.078;2022-09-09T02:41:57;8.05;;;4.90;;
35612;SDS011;22054;51.646;7.078;2022-09-09T02:44:23;5.45;;;4.38;;
35612;SDS011;22054;51.646;7.078;2022-09-09T02:50:05;8.00;;;5.00;;
35612;SDS011;22054;51.646;7.078;2022-09-09T02:55:05;7.50;;;4.88;;
35612;SDS011;22054;51.646;7.078;2022-09-09T02:57:43;5.75;;;4.65;;
35612;SDS011;22054;51.646;7.078;2022-09-09T03:00:12;6.90;;;4.80;;
35612;SDS011;22054;51.646;7.078;2022-09-09T03:02:38;6.60;;;5.97;;
35612;SDS011;22054;51.646;7.078;2022-09-09T03:05:05;6.68;;;5.32;;
35612;SDS011;22054;51.646;7.078;2022-09-09T03:07:31;9.40;;;5.90;;
35612;SDS011;22054;51.646;7.078;2022-09-09T03:09:58;7.28;;;5.82;;
35612;SDS011;22054;51.646;7.078;2022-09-09T03:12:24;6.35;;;5.88;;
35612;SDS011;22054;51.646;7.078;2022-09-09T03:14:50;7.85;;;7.15;;
35612;SDS011;22054;51.646;7.078;2022-09-09T03:17:15;7.10;;;6.40;;
35612;SDS011;22054;51.646;7.078;2022-09-09T03:19:41;11.13;;;7.45;;
35612;SDS011;22054;51.646;7.078;2022-09-09T03:22:09;8.30;;;7.63;;
35612;SDS011;22054;51.646;7.078;2022-09-09T03:24:36;7.28;;;6.38;;
35612;SDS011;22054;51.646;7.078;2022-09-09T03:27:02;13.70;;;7.55;;
35612;SDS011;22054;51.646;7.078;2022-09-09T03:29:28;9.23;;;7.60;;
35612;SDS011;22054;51.646;7.078;2022-09-09T03:31:53;10.70;;;6.65;;
35612;SDS011;22054;51.646;7.078;2022-09-09T03:34:19;8.02;;;7.40;;
35612;SDS011;22054;51.646;7.078;2022-09-09T03:36:45;9.23;;;7.40;;
35612;SDS011;22054;51.646;7.078;2022-09-09T03:39:11;7.88;;;7.07;;
35612;SDS011;22054;51.646;7.078;2022-09-09T03:41:37;8.07;;;7.43;;
35612;SDS011;22054;51.646;7.078;2022-09-09T03:44:03;7.90;;;7.13;;
35612;SDS011;22054;51.646;7.078;2022-09-09T03:46:29;7.38;;;6.68;;
35612;SDS011;22054;51.646;7.078;2022-09-09T03:48:54;9.05;;;7.15;;
35612;SDS011;22054;51.646;7.078;2022-09-09T03:51:22;7.32;;;6.65;;
35612;SDS011;22054;51.646;7.078;2022-09-09T03:53:47;9.32;;;7.38;;
35612;SDS011;22054;51.646;7.078;2022-09-09T03:56:14;8.35;;;7.57;;
35612;SDS011;22054;51.646;7.078;2022-09-09T03:58:39;10.27;;;7.70;;
35612;SDS011;22054;51.646;7.078;2022-09-09T04:01:07;9.02;;;8.13;;
35612;SDS011;22054;51.646;7.078;2022-09-09T04:03:38;7.72;;;7.05;;
35612;SDS011;22054;51.646;7.078;2022-09-09T04:06:04;13.27;;;7.75;;
35612;SDS011;22054;51.646;7.078;2022-09-09T04:08:34;7.32;;;6.63;;
35612;SDS011;22054;51.646;7.078;2022-09-09T04:11:01;12.80;;;7.63;;
35612;SDS011;22054;51.646;7.078;2022-09-09T04:13:31;7.15;;;6.53;;
35612;SDS011;22054;51.646;7.078;2022-09-09T04:15:59;8.32;;;7.55;;
35612;SDS011;22054;51.646;7.078;2022-09-09T04:18:27;8.30;;;7.30;;
35612;SDS011;22054;51.646;7.078;2022-09-09T04:20:55;8.55;;;7.72;;
35612;SDS011;22054;51.646;7.078;2022-09-09T04:23:22;11.50;;;8.18;;
35612;SDS011;22054;51.646;7.078;2022-09-09T04:25:54;9.23;;;7.57;;
35612;SDS011;22054;51.646;7.078;2022-09-09T04:28:22;8.77;;;7.40;;
35612;SDS011;22054;51.646;7.078;2022-09-09T04:30:51;9.52;;;8.73;;
35612;SDS011;22054;51.646;7.078;2022-09-09T04:33:17;9.07;;;7.40;;
35612;SDS011;22054;51.646;7.078;2022-09-09T04:35:45;9.45;;;7.00;;
35612;SDS011;22054;51.646;7.078;2022-09-09T04:38:13;8.15;;;7.13;;
35612;SDS011;22054;51.646;7.078;2022-09-09T04:40:39;9.20;;;7.65;;
35612;SDS011;22054;51.646;7.078;2022-09-09T04:43:08;7.70;;;7.00;;
35612;SDS011;22054;51.646;7.078;2022-09-09T04:45:35;12.95;;;7.40;;
35612;SDS011;22054;51.646;7.078;2022-09-09T04:48:02;8.30;;;6.15;;
35612;SDS011;22054;51.646;7.078;2022-09-09T04:50:28;7.20;;;6.47;;
35612;SDS011;22054;51.646;7.078;2022-09-09T04:52:54;10.65;;;7.72;;
35612;SDS011;22054;51.646;7.078;2022-09-09T04:55:20;12.05;;;7.38;;
35612;SDS011;22054;51.646;7.078;2022-09-09T04:57:46;8.43;;;5.70;;
35612;SDS011;22054;51.646;7.078;2022-09-09T05:00:12;6.68;;;5.90;;
35612;SDS011;22054;51.646;7.078;2022-09-09T05:02:39;9.77;;;5.85;;
35612;SDS011;22054;51.646;7.078;2022-09-09T05:05:06;11.07;;;5.60;;
35612;SDS011;22054;51.646;7.078;2022-09-09T05:07:32;7.28;;;5.72;;
35612;SDS011;22054;51.646;7.078;2022-09-09T05:09:58;5.78;;;5.18;;
35612;SDS011;22054;51.646;7.078;2022-09-09T05:12:24;6.10;;;4.28;;
35612;SDS011;22054;51.646;7.078;2022-09-09T05:14:50;8.80;;;4.45;;
35612;SDS011;22054;51.646;7.078;2022-09-09T05:17:17;8.48;;;5.53;;
35612;SDS011;22054;51.646;7.078;2022-09-09T05:19:42;10.10;;;9.07;;
35612;SDS011;22054;51.646;7.078;2022-09-09T05:22:09;16.35;;;14.93;;
35612;SDS011;22054;51.646;7.078;2022-09-09T05:24:36;12.52;;;11.55;;
35612;SDS011;22054;51.646;7.078;2022-09-09T05:27:03;11.27;;;10.48;;
35612;SDS011;22054;51.646;7.078;2022-09-09T05:29:30;12.48;;;11.20;;
35612;SDS011;22054;51.646;7.078;2022-09-09T05:31:58;12.40;;;11.30;;
35612;SDS011;22054;51.646;7.078;2022-09-09T05:34:24;10.85;;;9.80;;
35612;SDS011;22054;51.646;7.078;2022-09-09T05:36:50;11.23;;;10.15;;
35612;SDS011;22054;51.646;7.078;2022-09-09T05:39:17;10.40;;;9.52;;
35612;SDS011;22054;51.646;7.078;2022-09-09T05:41:43;11.82;;;11.02;;
35612;SDS011;22054;51.646;7.078;2022-09-09T05:44:09;11.00;;;9.50;;
35612;SDS011;22054;51.646;7.078;2022-09-09T05:46:35;13.32;;;11.88;;
35612;SDS011;22054;51.646;7.078;2022-09-09T05:49:01;9.00;;;3.55;;
35612;SDS011;22054;51.646;7.078;2022-09-09T05:51:28;5.80;;;4.20;;
35612;SDS011;22054;51.646;7.078;2022-09-09T05:53:57;8.55;;;4.50;;
35612;SDS011;22054;51.646;7.078;2022-09-09T05:56:25;9.82;;;4.68;;
35612;SDS011;22054;51.646;7.078;2022-09-09T05:58:53;8.80;;;6.10;;
35612;SDS011;22054;51.646;7.078;2022-09-09T06:01:21;9.10;;;6.20;;
35612;SDS011;22054;51.646;7.078;2022-09-09T06:03:52;10.02;;;6.70;;
35612;SDS011;22054;51.646;7.078;2022-09-09T06:06:19;7.50;;;6.05;;
35612;SDS011;22054;51.646;7.078;2022-09-09T06:08:51;9.30;;;5.85;;
35612;SDS011;22054;51.646;7.078;2022-09-09T06:11:22;7.03;;;6.28;;
35612;SDS011;22054;51.646;7.078;2022-09-09T06:13:56;11.93;;;6.25;;
35612;SDS011;22054;51.646;7.078;2022-09-09T06:16:23;9.75;;;4.88;;
35612;SDS011;22054;51.646;7.078;2022-09-09T06:18:54;10.55;;;6.68;;
35612;SDS011;22054;51.646;7.078;2022-09-09T06:21:22;13.10;;;6.70;;
35612;SDS011;22054;51.646;7.078;2022-09-09T06:23:50;12.43;;;6.93;;
35612;SDS011;22054;51.646;7.078;2022-09-09T06:26:18;12.68;;;8.65;;
35612;SDS011;22054;51.646;7.078;2022-09-09T06:28:56;10.50;;;7.78;;
35612;SDS011;22054;51.646;7.078;2022-09-09T06:31:26;9.38;;;8.23;;
35612;SDS011;22054;51.646;7.078;2022-09-09T06:33:58;10.75;;;7.85;;
35612;SDS011;22054;51.646;7.078;2022-09-09T06:36:26;15.60;;;7.55;;
35612;SDS011;22054;51.646;7.078;2022-09-09T06:38:54;10.75;;;7.20;;
35612;SDS011;22054;51.646;7.078;2022-09-09T06:41:21;10.93;;;7.60;;
35612;SDS011;22054;51.646;7.078;2022-09-09T06:43:48;10.00;;;8.73;;
35612;SDS011;22054;51.646;7.078;2022-09-09T06:46:15;9.65;;;7.70;;
35612;SDS011;22054;51.646;7.078;2022-09-09T06:48:46;10.25;;;7.75;;
35612;SDS011;22054;51.646;7.078;2022-09-09T06:53:44;8.73;;;7.38;;
35612;SDS011;22054;51.646;7.078;2022-09-09T06:58:42;8.38;;;5.15;;
35612;SDS011;22054;51.646;7.078;2022-09-09T07:01:10;10.18;;;7.00;;
35612;SDS011;22054;51.646;7.078;2022-09-09T07:03:39;11.20;;;6.80;;
35612;SDS011;22054;51.646;7.078;2022-09-09T07:06:05;7.85;;;6.72;;
35612;SDS011;22054;51.646;7.078;2022-09-09T07:08:32;10.98;;;7.05;;
35612;SDS011;22054;51.646;7.078;2022-09-09T07:11:05;20.67;;;10.32;;
35612;SDS011;22054;51.646;7.078;2022-09-09T07:13:33;13.90;;;6.90;;
35612;SDS011;22054;51.646;7.078;2022-09-09T07:16:06;12.00;;;6.95;;
35612;SDS011;22054;51.646;7.078;2022-09-09T07:18:34;12.32;;;8.27;;
35612;SDS011;22054;51.646;7.078;2022-09-09T07:21:01;12.35;;;8.55;;
35612;SDS011;22054;51.646;7.078;2022-09-09T07:23:29;9.30;;;8.40;;
35612;SDS011;22054;51.646;7.078;2022-09-09T07:25:55;10.88;;;8.98;;
35612;SDS011;22054;51.646;7.078;2022-09-09T07:28:23;9.43;;;8.18;;
35612;SDS011;22054;51.646;7.078;2022-09-09T07:30:52;7.97;;;7.22;;
35612;SDS011;22054;51.646;7.078;2022-09-09T07:33:23;8.68;;;6.63;;
35612;SDS011;22054;51.646;7.078;2022-09-09T07:35:50;9.45;;;6.65;;
35612;SDS011;22054;51.646;7.078;2022-09-09T07:38:17;12.48;;;6.80;;
35612;SDS011;22054;51.646;7.078;2022-09-09T07:40:45;11.27;;;7.30;;
35612;SDS011;22054;51.646;7.078;2022-09-09T07:43:11;7.88;;;7.18;;
35612;SDS011;22054;51.646;7.078;2022-09-09T07:45:37;9.50;;;6.38;;
35612;SDS011;22054;51.646;7.078;2022-09-09T07:48:03;11.13;;;6.47;;
35612;SDS011;22054;51.646;7.078;2022-09-09T07:50:30;11.57;;;7.38;;
35612;SDS011;22054;51.646;7.078;2022-09-09T07:52:56;8.27;;;7.30;;
35612;SDS011;22054;51.646;7.078;2022-09-09T07:55:23;10.57;;;5.90;;
35612;SDS011;22054;51.646;7.078;2022-09-09T07:57:52;10.15;;;6.10;;
35612;SDS011;22054;51.646;7.078;2022-09-09T08:00:18;7.18;;;6.15;;
35612;SDS011;22054;51.646;7.078;2022-09-09T08:02:46;7.80;;;6.15;;
35612;SDS011;22054;51.646;7.078;2022-09-09T08:05:12;10.00;;;7.05;;
35612;SDS011;22054;51.646;7.078;2022-09-09T08:07:38;7.05;;;6.40;;
35612;SDS011;22054;51.646;7.078;2022-09-09T08:10:04;8.98;;;6.45;;
35612;SDS011;22054;51.646;7.078;2022-09-09T08:12:31;9.27;;;6.47;;
35612;SDS011;22054;51.646;7.078;2022-09-09T08:14:57;8.35;;;5.95;;
35612;SDS011;22054;51.646;7.078;2022-09-09T08:17:23;9.77;;;6.10;;
35612;SDS011;22054;51.646;7.078;2022-09-09T08:19:49;8.82;;;6.70;;
35612;SDS011;22054;51.646;7.078;2022-09-09T08:22:14;9.85;;;7.10;;
35612;SDS011;22054;51.646;7.078;2022-09-09T08:24:40;7.28;;;6.60;;
35612;SDS011;22054;51.646;7.078;2022-09-09T08:27:06;7.70;;;6.90;;
35612;SDS011;22054;51.646;7.078;2022-09-09T08:29:32;11.95;;;8.18;;
35612;SDS011;22054;51.646;7.078;2022-09-09T08:31:58;12.73;;;7.18;;
35612;SDS011;22054;51.646;7.078;2022-09-09T08:34:25;11.35;;;7.82;;
35612;SDS011;22054;51.646;7.078;2022-09-09T08:36:52;11.95;;;6.95;;
35612;SDS011;22054;51.646;7.078;2022-09-09T08:39:19;8.52;;;5.47;;
35612;SDS011;22054;51.646;7.078;2022-09-09T08:44:29;6.03;;;4.32;;
35612;SDS011;22054;51.646;7.078;2022-09-09T08:50:34;9.80;;;6.05;;
35612;SDS011;22054;51.646;7.078;2022-09-09T08:56:01;13.90;;;6.07;;
35612;SDS011;22054;51.646;7.078;2022-09-09T08:58:35;10.43;;;6.60;;
35612;SDS011;22054;51.646;7.078;2022-09-09T09:07:12;14.13;;;6.97;;
35612;SDS011;22054;51.646;7.078;2022-09-09T09:12:51;6.40;;;5.88;;
35612;SDS011;22054;51.646;7.078;2022-09-09T09:15:39;7.43;;;6.35;;
35612;SDS011;22054;51.646;7.078;2022-09-09T09:18:07;6.47;;;5.85;;
35612;SDS011;22054;51.646;7.078;2022-09-09T09:20:58;9.88;;;6.70;;
35612;SDS011;22054;51.646;7.078;2022-09-09T09:23:40;8.85;;;6.97;;
35612;SDS011;22054;51.646;7.078;2022-09-09T09:26:16;7.97;;;6.63;;
35612;SDS011;22054;51.646;7.078;2022-09-09T09:28:43;7.20;;;6.10;;
35612;SDS011;22054;51.646;7.078;2022-09-09T09:31:10;8.18;;;6.78;;
35612;SDS011;22054;51.646;7.078;2022-09-09T09:36:20;11.25;;;6.10;;
35612;SDS011;22054;51.646;7.078;2022-09-09T09:38:59;6.82;;;6.05;;
35612;SDS011;22054;51.646;7.078;2022-09-09T09:41:31;7.57;;;5.50;;
35612;SDS011;22054;51.646;7.078;2022-09-09T09:44:06;6.43;;;5.82;;
35612;SDS011;22054;51.646;7.078;2022-09-09T09:46:50;8.07;;;5.38;;
35612;SDS011;22054;51.646;7.078;2022-09-09T09:49:15;6.90;;;5.90;;
35612;SDS011;22054;51.646;7.078;2022-09-09T09:51:42;9.85;;;6.28;;
35612;SDS011;22054;51.646;7.078;2022-09-09T10:01:54;7.82;;;6.32;;
35612;SDS011;22054;51.646;7.078;2022-09-09T10:05:02;9.20;;;6.20;;
35612;SDS011;22054;51.646;7.078;2022-09-09T10:07:31;7.30;;;6.70;;
35612;SDS011;22054;51.646;7.078;2022-09-09T10:09:57;6.95;;;6.18;;
35612;SDS011;22054;51.646;7.078;2022-09-09T10:35:19;8.88;;;5.68;;
35612;SDS011;22054;51.646;7.078;2022-09-09T10:38:02;8.95;;;5.57;;
35612;SDS011;22054;51.646;7.078;2022-09-09T10:40:58;7.25;;;5.25;;
35612;SDS011;22054;51.646;7.078;2022-09-09T10:52:19;6.18;;;5.55;;
35612;SDS011;22054;51.646;7.078;2022-09-09T10:57:58;8.40;;;5.97;;
35612;SDS011;22054;51.646;7.078;2022-09-09T11:00:37;5.78;;;5.25;;
35612;SDS011;22054;51.646;7.078;2022-09-09T11:03:20;5.75;;;5.30;;
35612;SDS011;22054;51.646;7.078;2022-09-09T11:05:52;6.47;;;5.60;;
35612;SDS011;22054;51.646;7.078;2022-09-09T11:08:31;6.40;;;5.88;;
35612;SDS011;22054;51.646;7.078;2022-09-09T11:21:50;6.70;;;5.72;;
35612;SDS011;22054;51.646;7.078;2022-09-09T11:24:22;5.68;;;5.18;;
35612;SDS011;22054;51.646;7.078;2022-09-09T11:27:09;5.95;;;5.55;;
35612;SDS011;22054;51.646;7.078;2022-09-09T11:38:19;6.00;;;5.00;;
35612;SDS011;22054;51.646;7.078;2022-09-09T11:40:58;6.53;;;5.72;;
35612;SDS011;22054;51.646;7.078;2022-09-09T11:43:32;5.90;;;5.38;;
35612;SDS011;22054;51.646;7.078;2022-09-09T11:46:06;5.95;;;5.38;;
35612;SDS011;22054;51.646;7.078;2022-09-09T11:48:42;7.28;;;6.03;;
35612;SDS011;22054;51.646;7.078;2022-09-09T11:51:25;6.65;;;5.93;;
35612;SDS011;22054;51.646;7.078;2022-09-09T11:53:56;5.78;;;5.38;;
35612;SDS011;22054;51.646;7.078;2022-09-09T12:02:17;6.07;;;5.50;;
35612;SDS011;22054;51.646;7.078;2022-09-09T12:04:54;8.90;;;6.53;;
35612;SDS011;22054;51.646;7.078;2022-09-09T12:07:50;9.60;;;5.55;;
35612;SDS011;22054;51.646;7.078;2022-09-09T12:10:23;6.57;;;5.97;;
35612;SDS011;22054;51.646;7.078;2022-09-09T12:12:53;6.30;;;5.80;;
35612;SDS011;22054;51.646;7.078;2022-09-09T12:15:28;7.13;;;6.50;;
35612;SDS011;22054;51.646;7.078;2022-09-09T12:17:55;7.00;;;6.40;;
35612;SDS011;22054;51.646;7.078;2022-09-09T12:20:31;7.35;;;6.70;;
35612;SDS011;22054;51.646;7.078;2022-09-09T12:28:45;6.82;;;6.10;;
35612;SDS011;22054;51.646;7.078;2022-09-09T12:37:06;7.33;;;6.73;;
35612;SDS011;22054;51.646;7.078;2022-09-09T12:39:48;7.30;;;6.60;;
35612;SDS011;22054;51.646;7.078;2022-09-09T12:42:24;7.72;;;6.13;;
35612;SDS011;22054;51.646;7.078;2022-09-09T12:44:52;6.03;;;5.38;;
35612;SDS011;22054;51.646;7.078;2022-09-09T12:47:24;6.70;;;6.10;;
35612;SDS011;22054;51.646;7.078;2022-09-09T12:50:25;6.88;;;6.38;;
35612;SDS011;22054;51.646;7.078;2022-09-09T12:52:55;8.95;;;7.07;;
35612;SDS011;22054;51.646;7.078;2022-09-09T12:55:25;7.57;;;6.18;;
35612;SDS011;22054;51.646;7.078;2022-09-09T12:57:56;6.50;;;5.90;;
35612;SDS011;22054;51.646;7.078;2022-09-09T13:00:24;7.00;;;6.43;;
35612;SDS011;22054;51.646;7.078;2022-09-09T13:02:54;7.30;;;6.63;;
35612;SDS011;22054;51.646;7.078;2022-09-09T13:05:25;9.07;;;5.70;;
35612;SDS011;22054;51.646;7.078;2022-09-09T13:08:03;7.35;;;6.55;;
35612;SDS011;22054;51.646;7.078;2022-09-09T13:10:32;6.68;;;6.05;;
35612;SDS011;22054;51.646;7.078;2022-09-09T13:13:03;9.18;;;8.32;;
35612;SDS011;22054;51.646;7.078;2022-09-09T13:15:47;10.10;;;5.45;;
35612;SDS011;22054;51.646;7.078;2022-09-09T13:18:21;12.63;;;11.68;;
35612;SDS011;22054;51.646;7.078;2022-09-09T13:20:49;16.08;;;14.73;;
35612;SDS011;22054;51.646;7.078;2022-09-09T13:23:16;17.17;;;15.95;;
35612;SDS011;22054;51.646;7.078;2022-09-09T13:25:54;14.82;;;13.63;;
35612;SDS011;22054;51.646;7.078;2022-09-09T13:28:23;13.02;;;12.05;;
35612;SDS011;22054;51.646;7.078;2022-09-09T13:30:59;5.45;;;3.85;;
35612;SDS011;22054;51.646;7.078;2022-09-09T13:33:35;6.88;;;3.90;;
35612;SDS011;22054;51.646;7.078;2022-09-09T13:36:03;6.15;;;4.35;;
35612;SDS011;22054;51.646;7.078;2022-09-09T13:38:35;5.05;;;4.15;;
35612;SDS011;22054;51.646;7.078;2022-09-09T13:41:07;5.88;;;5.13;;
35612;SDS011;22054;51.646;7.078;2022-09-09T13:43:42;4.65;;;4.25;;
35612;SDS011;22054;51.646;7.078;2022-09-09T13:51:35;5.05;;;3.83;;
35612;SDS011;22054;51.646;7.078;2022-09-09T13:54:06;6.30;;;4.10;;
35612;SDS011;22054;51.646;7.078;2022-09-09T13:56:35;3.92;;;2.80;;
35612;SDS011;22054;51.646;7.078;2022-09-09T13:59:04;6.25;;;3.05;;
35612;SDS011;22054;51.646;7.078;2022-09-09T14:01:33;5.13;;;4.63;;
35612;SDS011;22054;51.646;7.078;2022-09-09T14:04:01;3.97;;;3.67;;
35612;SDS011;22054;51.646;7.078;2022-09-09T14:06:27;4.47;;;4.07;;
35612;SDS011;22054;51.646;7.078;2022-09-09T14:08:54;4.38;;;3.45;;
35612;SDS011;22054;51.646;7.078;2022-09-09T14:11:20;4.47;;;3.45;;
35612;SDS011;22054;51.646;7.078;2022-09-09T14:13:47;4.38;;;3.50;;
35612;SDS011;22054;51.646;7.078;2022-09-09T14:16:15;4.50;;;4.10;;
35612;SDS011;22054;51.646;7.078;2022-09-09T14:18:42;7.50;;;5.55;;
35612;SDS011;22054;51.646;7.078;2022-09-09T14:21:10;4.97;;;4.47;;
35612;SDS011;22054;51.646;7.078;2022-09-09T14:23:36;15.68;;;14.70;;
35612;SDS011;22054;51.646;7.078;2022-09-09T14:26:03;10.77;;;10.07;;
35612;SDS011;22054;51.646;7.078;2022-09-09T14:28:33;5.05;;;1.20;;
35612;SDS011;22054;51.646;7.078;2022-09-09T14:31:01;16.13;;;14.90;;
35612;SDS011;22054;51.646;7.078;2022-09-09T14:33:28;15.77;;;14.75;;
35612;SDS011;22054;51.646;7.078;2022-09-09T14:36:02;13.07;;;12.38;;
35612;SDS011;22054;51.646;7.078;2022-09-09T14:38:29;12.10;;;11.20;;
35612;SDS011;22054;51.646;7.078;2022-09-09T14:40:58;10.52;;;9.80;;
35612;SDS011;22054;51.646;7.078;2022-09-09T14:43:27;10.00;;;9.30;;
35612;SDS011;22054;51.646;7.078;2022-09-09T14:45:53;9.27;;;8.68;;
35612;SDS011;22054;51.646;7.078;2022-09-09T14:48:18;8.77;;;8.18;;
35612;SDS011;22054;51.646;7.078;2022-09-09T14:50:44;9.40;;;8.60;;
35612;SDS011;22054;51.646;7.078;2022-09-09T14:53:10;9.65;;;8.68;;
35612;SDS011;22054;51.646;7.078;2022-09-09T14:55:36;9.43;;;8.60;;
35612;SDS011;22054;51.646;7.078;2022-09-09T14:58:02;7.32;;;6.63;;
35612;SDS011;22054;51.646;7.078;2022-09-09T15:00:28;6.07;;;3.85;;
35612;SDS011;22054;51.646;7.078;2022-09-09T15:02:54;9.70;;;8.95;;
35612;SDS011;22054;51.646;7.078;2022-09-09T15:05:20;9.75;;;8.82;;
35612;SDS011;22054;51.646;7.078;2022-09-09T15:07:47;9.35;;;8.50;;
35612;SDS011;22054;51.646;7.078;2022-09-09T15:10:15;9.30;;;8.60;;
35612;SDS011;22054;51.646;7.078;2022-09-09T15:12:42;12.30;;;11.50;;
35612;SDS011;22054;51.646;7.078;2022-09-09T15:15:09;8.07;;;2.45;;
35612;SDS011;22054;51.646;7.078;2022-09-09T15:17:35;3.83;;;1.63;;
35612;SDS011;22054;51.646;7.078;2022-09-09T15:20:02;4.50;;;2.22;;
35612;SDS011;22054;51.646;7.078;2022-09-09T15:22:30;8.75;;;3.15;;
35612;SDS011;22054;51.646;7.078;2022-09-09T15:24:57;6.68;;;2.08;;
35612;SDS011;22054;51.646;7.078;2022-09-09T15:27:23;7.72;;;1.90;;
35612;SDS011;22054;51.646;7.078;2022-09-09T15:29:49;5.43;;;1.67;;
35612;SDS011;22054;51.646;7.078;2022-09-09T15:32:16;5.32;;;1.90;;
35612;SDS011;22054;51.646;7.078;2022-09-09T15:34:42;10.88;;;2.00;;
35612;SDS011;22054;51.646;7.078;2022-09-09T15:37:11;4.78;;;2.70;;
35612;SDS011;22054;51.646;7.078;2022-09-09T15:39:40;5.07;;;1.50;;
35612;SDS011;22054;51.646;7.078;2022-09-09T15:42:06;4.18;;;2.08;;
35612;SDS011;22054;51.646;7.078;2022-09-09T15:44:40;9.75;;;3.80;;
35612;SDS011;22054;51.646;7.078;2022-09-09T15:47:10;8.18;;;2.72;;
35612;SDS011;22054;51.646;7.078;2022-09-09T15:49:40;7.90;;;3.45;;
35612;SDS011;22054;51.646;7.078;2022-09-09T15:52:06;6.78;;;3.05;;
35612;SDS011;22054;51.646;7.078;2022-09-09T15:54:34;4.70;;;3.00;;
35612;SDS011;22054;51.646;7.078;2022-09-09T15:57:04;4.30;;;2.35;;
35612;SDS011;22054;51.646;7.078;2022-09-09T15:59:33;3.58;;;1.52;;
35612;SDS011;22054;51.646;7.078;2022-09-09T16:01:59;4.65;;;1.77;;
35612;SDS011;22054;51.646;7.078;2022-09-09T16:04:26;9.30;;;2.22;;
35612;SDS011;22054;51.646;7.078;2022-09-09T16:06:55;2.40;;;2.10;;
35612;SDS011;22054;51.646;7.078;2022-09-09T16:11:49;4.05;;;1.52;;
35612;SDS011;22054;51.646;7.078;2022-09-09T16:14:15;7.35;;;2.45;;
35612;SDS011;22054;51.646;7.078;2022-09-09T16:16:41;5.13;;;2.05;;
35612;SDS011;22054;51.646;7.078;2022-09-09T16:19:08;4.90;;;2.10;;
35612;SDS011;22054;51.646;7.078;2022-09-09T16:21:39;4.53;;;2.55;;
35612;SDS011;22054;51.646;7.078;2022-09-09T16:24:08;8.85;;;7.22;;
35612;SDS011;22054;51.646;7.078;2022-09-09T16:26:38;8.40;;;7.78;;
35612;SDS011;22054;51.646;7.078;2022-09-09T16:29:15;8.38;;;7.88;;
35612;SDS011;22054;51.646;7.078;2022-09-09T16:31:52;6.47;;;4.10;;
35612;SDS011;22054;51.646;7.078;2022-09-09T16:34:19;5.05;;;3.78;;
35612;SDS011;22054;51.646;7.078;2022-09-09T16:36:46;3.95;;;3.65;;
35612;SDS011;22054;51.646;7.078;2022-09-09T16:39:15;8.93;;;4.13;;
35612;SDS011;22054;51.646;7.078;2022-09-09T16:41:44;4.72;;;3.95;;
35612;SDS011;22054;51.646;7.078;2022-09-09T16:44:12;5.03;;;3.83;;
35612;SDS011;22054;51.646;7.078;2022-09-09T16:46:41;4.00;;;3.40;;
35612;SDS011;22054;51.646;7.078;2022-09-09T16:49:09;2.72;;;1.58;;
35612;SDS011;22054;51.646;7.078;2022-09-09T16:51:41;2.22;;;1.58;;
35612;SDS011;22054;51.646;7.078;2022-09-09T16:54:13;3.22;;;1.25;;
35612;SDS011;22054;51.646;7.078;2022-09-09T16:56:43;5.15;;;1.88;;
35612;SDS011;22054;51.646;7.078;2022-09-09T16:59:12;3.55;;;1.25;;
35612;SDS011;22054;51.646;7.078;2022-09-09T17:01:47;3.67;;;1.83;;
35612;SDS011;22054;51.646;7.078;2022-09-09T17:06:46;1.65;;;1.33;;
35612;SDS011;22054;51.646;7.078;2022-09-09T17:09:16;3.95;;;1.55;;
35612;SDS011;22054;51.646;7.078;2022-09-09T17:11:43;6.85;;;2.15;;
35612;SDS011;22054;51.646;7.078;2022-09-09T17:14:11;2.63;;;1.50;;
35612;SDS011;22054;51.646;7.078;2022-09-09T17:16:41;3.50;;;2.65;;
35612;SDS011;22054;51.646;7.078;2022-09-09T17:19:07;3.38;;;1.67;;
35612;SDS011;22054;51.646;7.078;2022-09-09T17:21:34;4.07;;;1.83;;
35612;SDS011;22054;51.646;7.078;2022-09-09T17:24:01;6.53;;;2.17;;
35612;SDS011;22054;51.646;7.078;2022-09-09T17:26:27;3.95;;;2.30;;
35612;SDS011;22054;51.646;7.078;2022-09-09T17:28:57;4.80;;;3.80;;
35612;SDS011;22054;51.646;7.078;2022-09-09T17:31:23;4.45;;;2.63;;
35612;SDS011;22054;51.646;7.078;2022-09-09T17:33:50;5.43;;;3.55;;
35612;SDS011;22054;51.646;7.078;2022-09-09T17:36:21;5.93;;;5.28;;
35612;SDS011;22054;51.646;7.078;2022-09-09T17:38:53;4.88;;;4.43;;
35612;SDS011;22054;51.646;7.078;2022-09-09T17:43:56;5.93;;;4.28;;
35612;SDS011;22054;51.646;7.078;2022-09-09T17:46:25;4.70;;;4.30;;
35612;SDS011;22054;51.646;7.078;2022-09-09T17:49:04;4.57;;;4.28;;
35612;SDS011;22054;51.646;7.078;2022-09-09T17:51:37;5.20;;;3.88;;
35612;SDS011;22054;51.646;7.078;2022-09-09T17:54:04;4.95;;;4.50;;
35612;SDS011;22054;51.646;7.078;2022-09-09T17:56:49;6.35;;;5.30;;
35612;SDS011;22054;51.646;7.078;2022-09-09T17:59:16;8.07;;;5.28;;
35612;SDS011;22054;51.646;7.078;2022-09-09T18:01:44;7.38;;;6.65;;
35612;SDS011;22054;51.646;7.078;2022-09-09T18:04:12;8.10;;;4.53;;
35612;SDS011;22054;51.646;7.078;2022-09-09T18:06:44;7.82;;;4.30;;
35612;SDS011;22054;51.646;7.078;2022-09-09T18:09:15;5.53;;;4.03;;